Battle Mountain, Nevada
Current Conditions -  °F | °C
As of 8:56 PM on Thursday 18 Dec 2014 (Local Time) from KWMC Reporting Station
Scattered Clouds Scattered Clouds  
Wind Chill: 29°   Ceiling: Unl
Heat Index: 36°   Visibility: 10mi
Dew Point: 28°   Wind: 9mph
Humidity: 73%   Direction: 180°S
Pressure: 30.13"   Gusts: NA
Location:  40.64°N, 116.94°W
Report Text: KWMC 190456Z AUTO 18008KT 10SM SCT080 02/M02 A3013 RMK AO2 SLP211 T00221022
Loading
Personal Weather Stations






























Interactive Weather Map New forecast layout! Learn more

10-Day Weather Forecast

Advertisements
Track Severe Weather on mobile